sensor_id;sensor_type;location;lat;lon;timestamp;P1;durP1;ratioP1;P2;durP2;ratioP2
3698;SDS011;1865;50.918;7.092;2023-05-07T00:00:10;6.67;;;3.33;;
3698;SDS011;1865;50.918;7.092;2023-05-07T00:02:36;6.40;;;3.20;;
3698;SDS011;1865;50.918;7.092;2023-05-07T00:05:02;8.43;;;3.60;;
3698;SDS011;1865;50.918;7.092;2023-05-07T00:07:28;7.40;;;3.37;;
3698;SDS011;1865;50.918;7.092;2023-05-07T00:09:54;7.80;;;3.40;;
3698;SDS011;1865;50.918;7.092;2023-05-07T00:12:20;6.73;;;3.87;;
3698;SDS011;1865;50.918;7.092;2023-05-07T00:14:45;7.50;;;3.40;;
3698;SDS011;1865;50.918;7.092;2023-05-07T00:17:11;8.67;;;3.20;;
3698;SDS011;1865;50.918;7.092;2023-05-07T00:19:37;11.23;;;3.00;;
3698;SDS011;1865;50.918;7.092;2023-05-07T00:22:02;9.20;;;3.93;;
3698;SDS011;1865;50.918;7.092;2023-05-07T00:24:28;5.53;;;2.57;;
3698;SDS011;1865;50.918;7.092;2023-05-07T00:26:53;10.43;;;4.50;;
3698;SDS011;1865;50.918;7.092;2023-05-07T00:29:19;10.53;;;3.70;;
3698;SDS011;1865;50.918;7.092;2023-05-07T00:31:44;8.90;;;3.43;;
3698;SDS011;1865;50.918;7.092;2023-05-07T00:34:09;8.10;;;3.40;;
3698;SDS011;1865;50.918;7.092;2023-05-07T00:36:35;7.23;;;3.47;;
3698;SDS011;1865;50.918;7.092;2023-05-07T00:39:01;6.50;;;3.40;;
3698;SDS011;1865;50.918;7.092;2023-05-07T00:41:28;10.10;;;3.20;;
3698;SDS011;1865;50.918;7.092;2023-05-07T00:43:55;9.03;;;3.33;;
3698;SDS011;1865;50.918;7.092;2023-05-07T00:46:21;11.57;;;3.20;;
3698;SDS011;1865;50.918;7.092;2023-05-07T00:48:47;11.70;;;3.10;;
3698;SDS011;1865;50.918;7.092;2023-05-07T00:51:14;7.50;;;3.87;;
3698;SDS011;1865;50.918;7.092;2023-05-07T00:53:40;8.50;;;3.13;;
3698;SDS011;1865;50.918;7.092;2023-05-07T00:56:06;7.37;;;3.20;;
3698;SDS011;1865;50.918;7.092;2023-05-07T00:58:32;7.63;;;3.13;;
3698;SDS011;1865;50.918;7.092;2023-05-07T01:00:58;8.37;;;3.37;;
3698;SDS011;1865;50.918;7.092;2023-05-07T01:03:24;10.87;;;3.47;;
3698;SDS011;1865;50.918;7.092;2023-05-07T01:05:50;8.67;;;2.90;;
3698;SDS011;1865;50.918;7.092;2023-05-07T01:08:19;5.47;;;2.73;;
3698;SDS011;1865;50.918;7.092;2023-05-07T01:10:46;7.27;;;3.50;;
3698;SDS011;1865;50.918;7.092;2023-05-07T01:13:12;9.67;;;3.70;;
3698;SDS011;1865;50.918;7.092;2023-05-07T01:15:39;9.70;;;3.00;;
3698;SDS011;1865;50.918;7.092;2023-05-07T01:18:07;7.63;;;3.10;;
3698;SDS011;1865;50.918;7.092;2023-05-07T01:20:33;13.97;;;2.70;;
3698;SDS011;1865;50.918;7.092;2023-05-07T01:22:59;6.67;;;2.40;;
3698;SDS011;1865;50.918;7.092;2023-05-07T01:25:26;5.23;;;2.57;;
3698;SDS011;1865;50.918;7.092;2023-05-07T01:27:52;5.17;;;2.63;;
3698;SDS011;1865;50.918;7.092;2023-05-07T01:30:18;7.37;;;2.67;;
3698;SDS011;1865;50.918;7.092;2023-05-07T01:32:51;10.33;;;3.27;;
3698;SDS011;1865;50.918;7.092;2023-05-07T01:35:22;9.40;;;2.63;;
3698;SDS011;1865;50.918;7.092;2023-05-07T01:37:53;7.80;;;3.10;;
3698;SDS011;1865;50.918;7.092;2023-05-07T01:40:20;7.93;;;2.80;;
3698;SDS011;1865;50.918;7.092;2023-05-07T01:42:46;5.80;;;2.67;;
3698;SDS011;1865;50.918;7.092;2023-05-07T01:45:13;6.83;;;2.20;;
3698;SDS011;1865;50.918;7.092;2023-05-07T01:47:38;13.63;;;2.40;;
3698;SDS011;1865;50.918;7.092;2023-05-07T01:50:07;7.27;;;2.33;;
3698;SDS011;1865;50.918;7.092;2023-05-07T01:52:35;6.80;;;2.50;;
3698;SDS011;1865;50.918;7.092;2023-05-07T01:55:03;5.77;;;2.90;;
3698;SDS011;1865;50.918;7.092;2023-05-07T01:57:29;4.50;;;2.10;;
3698;SDS011;1865;50.918;7.092;2023-05-07T01:59:55;6.87;;;2.40;;
3698;SDS011;1865;50.918;7.092;2023-05-07T02:02:20;5.27;;;2.60;;
3698;SDS011;1865;50.918;7.092;2023-05-07T02:04:46;6.07;;;2.80;;
3698;SDS011;1865;50.918;7.092;2023-05-07T02:07:12;7.73;;;2.70;;
3698;SDS011;1865;50.918;7.092;2023-05-07T02:09:37;7.40;;;2.90;;
3698;SDS011;1865;50.918;7.092;2023-05-07T02:12:03;6.43;;;2.50;;
3698;SDS011;1865;50.918;7.092;2023-05-07T02:14:29;7.43;;;2.50;;
3698;SDS011;1865;50.918;7.092;2023-05-07T02:16:54;8.53;;;2.50;;
3698;SDS011;1865;50.918;7.092;2023-05-07T02:19:19;5.67;;;2.57;;
3698;SDS011;1865;50.918;7.092;2023-05-07T02:21:46;7.07;;;2.70;;
3698;SDS011;1865;50.918;7.092;2023-05-07T02:24:12;7.20;;;2.87;;
3698;SDS011;1865;50.918;7.092;2023-05-07T02:26:37;5.73;;;2.67;;
3698;SDS011;1865;50.918;7.092;2023-05-07T02:29:04;6.73;;;1.93;;
3698;SDS011;1865;50.918;7.092;2023-05-07T02:31:29;5.30;;;2.70;;
3698;SDS011;1865;50.918;7.092;2023-05-07T02:33:55;6.00;;;2.70;;
3698;SDS011;1865;50.918;7.092;2023-05-07T02:36:20;5.20;;;2.50;;
3698;SDS011;1865;50.918;7.092;2023-05-07T02:38:46;5.23;;;2.40;;
3698;SDS011;1865;50.918;7.092;2023-05-07T02:41:11;6.03;;;2.70;;
3698;SDS011;1865;50.918;7.092;2023-05-07T02:43:37;6.83;;;2.50;;
3698;SDS011;1865;50.918;7.092;2023-05-07T02:46:06;7.30;;;2.83;;
3698;SDS011;1865;50.918;7.092;2023-05-07T02:48:33;5.57;;;2.40;;
3698;SDS011;1865;50.918;7.092;2023-05-07T02:50:59;6.27;;;3.00;;
3698;SDS011;1865;50.918;7.092;2023-05-07T02:53:25;6.93;;;2.93;;
3698;SDS011;1865;50.918;7.092;2023-05-07T02:55:52;5.50;;;3.17;;
3698;SDS011;1865;50.918;7.092;2023-05-07T02:58:18;5.57;;;2.70;;
3698;SDS011;1865;50.918;7.092;2023-05-07T03:00:44;6.43;;;2.97;;
3698;SDS011;1865;50.918;7.092;2023-05-07T03:03:10;6.97;;;2.30;;
3698;SDS011;1865;50.918;7.092;2023-05-07T03:05:35;5.00;;;2.10;;
3698;SDS011;1865;50.918;7.092;2023-05-07T03:08:01;5.93;;;2.30;;
3698;SDS011;1865;50.918;7.092;2023-05-07T03:10:27;12.90;;;2.57;;
3698;SDS011;1865;50.918;7.092;2023-05-07T03:12:52;11.13;;;2.70;;
3698;SDS011;1865;50.918;7.092;2023-05-07T03:15:18;6.73;;;2.80;;
3698;SDS011;1865;50.918;7.092;2023-05-07T03:17:43;6.70;;;3.23;;
3698;SDS011;1865;50.918;7.092;2023-05-07T03:20:09;8.77;;;2.57;;
3698;SDS011;1865;50.918;7.092;2023-05-07T03:22:35;5.40;;;2.40;;
3698;SDS011;1865;50.918;7.092;2023-05-07T03:25:01;4.83;;;2.30;;
3698;SDS011;1865;50.918;7.092;2023-05-07T03:27:26;5.63;;;2.93;;
3698;SDS011;1865;50.918;7.092;2023-05-07T03:29:52;9.10;;;2.83;;
3698;SDS011;1865;50.918;7.092;2023-05-07T03:32:17;8.13;;;2.53;;
3698;SDS011;1865;50.918;7.092;2023-05-07T03:34:43;7.27;;;2.13;;
3698;SDS011;1865;50.918;7.092;2023-05-07T03:37:08;5.90;;;2.60;;
3698;SDS011;1865;50.918;7.092;2023-05-07T03:39:34;5.43;;;2.50;;
3698;SDS011;1865;50.918;7.092;2023-05-07T03:42:00;5.17;;;2.63;;
3698;SDS011;1865;50.918;7.092;2023-05-07T03:44:26;5.10;;;2.67;;
3698;SDS011;1865;50.918;7.092;2023-05-07T03:46:51;9.00;;;2.97;;
3698;SDS011;1865;50.918;7.092;2023-05-07T03:49:17;6.00;;;2.33;;
3698;SDS011;1865;50.918;7.092;2023-05-07T03:51:42;10.20;;;2.80;;
3698;SDS011;1865;50.918;7.092;2023-05-07T03:54:08;5.93;;;2.90;;
3698;SDS011;1865;50.918;7.092;2023-05-07T03:56:33;8.00;;;2.90;;
3698;SDS011;1865;50.918;7.092;2023-05-07T03:58:59;4.97;;;2.30;;
3698;SDS011;1865;50.918;7.092;2023-05-07T04:01:25;5.33;;;2.63;;
3698;SDS011;1865;50.918;7.092;2023-05-07T04:03:51;5.93;;;2.83;;
3698;SDS011;1865;50.918;7.092;2023-05-07T04:06:16;9.47;;;2.27;;
3698;SDS011;1865;50.918;7.092;2023-05-07T04:08:42;5.10;;;2.57;;
3698;SDS011;1865;50.918;7.092;2023-05-07T04:11:08;5.50;;;2.40;;
3698;SDS011;1865;50.918;7.092;2023-05-07T04:13:33;8.17;;;2.90;;
3698;SDS011;1865;50.918;7.092;2023-05-07T04:16:00;7.43;;;2.50;;
3698;SDS011;1865;50.918;7.092;2023-05-07T04:18:27;9.03;;;2.60;;
3698;SDS011;1865;50.918;7.092;2023-05-07T04:20:53;10.63;;;2.10;;
3698;SDS011;1865;50.918;7.092;2023-05-07T04:23:18;5.07;;;2.60;;
3698;SDS011;1865;50.918;7.092;2023-05-07T04:25:44;4.97;;;2.33;;
3698;SDS011;1865;50.918;7.092;2023-05-07T04:28:10;5.10;;;2.37;;
3698;SDS011;1865;50.918;7.092;2023-05-07T04:30:36;4.73;;;2.33;;
3698;SDS011;1865;50.918;7.092;2023-05-07T04:33:02;5.10;;;2.40;;
3698;SDS011;1865;50.918;7.092;2023-05-07T04:35:27;7.80;;;2.90;;
3698;SDS011;1865;50.918;7.092;2023-05-07T04:37:53;5.90;;;2.77;;
3698;SDS011;1865;50.918;7.092;2023-05-07T04:40:18;9.87;;;2.50;;
3698;SDS011;1865;50.918;7.092;2023-05-07T04:42:44;7.23;;;2.77;;
3698;SDS011;1865;50.918;7.092;2023-05-07T04:45:10;5.97;;;2.93;;
3698;SDS011;1865;50.918;7.092;2023-05-07T04:47:35;8.20;;;3.10;;
3698;SDS011;1865;50.918;7.092;2023-05-07T04:50:01;4.70;;;2.40;;
3698;SDS011;1865;50.918;7.092;2023-05-07T04:52:27;8.20;;;2.70;;
3698;SDS011;1865;50.918;7.092;2023-05-07T04:54:52;10.80;;;2.97;;
3698;SDS011;1865;50.918;7.092;2023-05-07T04:57:18;5.13;;;2.20;;
3698;SDS011;1865;50.918;7.092;2023-05-07T04:59:43;7.07;;;3.23;;
3698;SDS011;1865;50.918;7.092;2023-05-07T05:02:10;6.33;;;3.00;;
3698;SDS011;1865;50.918;7.092;2023-05-07T05:04:35;6.70;;;2.63;;
3698;SDS011;1865;50.918;7.092;2023-05-07T05:07:01;6.10;;;2.57;;
3698;SDS011;1865;50.918;7.092;2023-05-07T05:09:28;5.43;;;2.50;;
3698;SDS011;1865;50.918;7.092;2023-05-07T05:11:54;6.90;;;2.50;;
3698;SDS011;1865;50.918;7.092;2023-05-07T05:14:20;7.50;;;2.63;;
3698;SDS011;1865;50.918;7.092;2023-05-07T05:16:45;7.93;;;2.63;;
3698;SDS011;1865;50.918;7.092;2023-05-07T05:19:11;5.50;;;2.50;;
3698;SDS011;1865;50.918;7.092;2023-05-07T05:21:36;6.33;;;2.00;;
3698;SDS011;1865;50.918;7.092;2023-05-07T05:24:02;10.23;;;3.30;;
3698;SDS011;1865;50.918;7.092;2023-05-07T05:26:28;5.40;;;2.07;;
3698;SDS011;1865;50.918;7.092;2023-05-07T05:28:53;4.70;;;2.30;;
3698;SDS011;1865;50.918;7.092;2023-05-07T05:31:19;5.37;;;2.30;;
3698;SDS011;1865;50.918;7.092;2023-05-07T05:33:44;6.73;;;2.50;;
3698;SDS011;1865;50.918;7.092;2023-05-07T05:36:10;8.30;;;2.40;;
3698;SDS011;1865;50.918;7.092;2023-05-07T05:38:36;5.40;;;2.30;;
3698;SDS011;1865;50.918;7.092;2023-05-07T05:41:02;5.73;;;2.50;;
3698;SDS011;1865;50.918;7.092;2023-05-07T05:43:28;7.07;;;2.40;;
3698;SDS011;1865;50.918;7.092;2023-05-07T05:45:54;6.83;;;2.93;;
3698;SDS011;1865;50.918;7.092;2023-05-07T05:48:20;7.00;;;2.10;;
3698;SDS011;1865;50.918;7.092;2023-05-07T05:50:46;6.20;;;2.67;;
3698;SDS011;1865;50.918;7.092;2023-05-07T05:53:11;6.20;;;2.13;;
3698;SDS011;1865;50.918;7.092;2023-05-07T05:55:37;4.70;;;2.43;;
3698;SDS011;1865;50.918;7.092;2023-05-07T05:58:02;5.47;;;2.00;;
3698;SDS011;1865;50.918;7.092;2023-05-07T06:00:28;4.70;;;2.30;;
3698;SDS011;1865;50.918;7.092;2023-05-07T06:02:54;5.83;;;2.30;;
3698;SDS011;1865;50.918;7.092;2023-05-07T06:05:19;6.13;;;2.73;;
3698;SDS011;1865;50.918;7.092;2023-05-07T06:07:45;4.87;;;2.20;;
3698;SDS011;1865;50.918;7.092;2023-05-07T06:10:10;5.10;;;2.47;;
3698;SDS011;1865;50.918;7.092;2023-05-07T06:12:36;4.57;;;2.57;;
3698;SDS011;1865;50.918;7.092;2023-05-07T06:15:02;7.60;;;2.27;;
3698;SDS011;1865;50.918;7.092;2023-05-07T06:17:28;4.87;;;2.70;;
3698;SDS011;1865;50.918;7.092;2023-05-07T06:19:53;5.77;;;2.30;;
3698;SDS011;1865;50.918;7.092;2023-05-07T06:22:19;5.67;;;2.40;;
3698;SDS011;1865;50.918;7.092;2023-05-07T06:24:44;5.60;;;1.90;;
3698;SDS011;1865;50.918;7.092;2023-05-07T06:27:11;4.20;;;1.90;;
3698;SDS011;1865;50.918;7.092;2023-05-07T06:29:36;5.30;;;1.90;;
3698;SDS011;1865;50.918;7.092;2023-05-07T06:32:12;7.40;;;2.20;;
3698;SDS011;1865;50.918;7.092;2023-05-07T06:34:38;4.83;;;2.10;;
3698;SDS011;1865;50.918;7.092;2023-05-07T06:37:05;5.13;;;2.20;;
3698;SDS011;1865;50.918;7.092;2023-05-07T06:39:31;10.80;;;2.00;;
3698;SDS011;1865;50.918;7.092;2023-05-07T06:41:57;3.53;;;1.63;;
3698;SDS011;1865;50.918;7.092;2023-05-07T06:44:23;4.20;;;1.90;;
3698;SDS011;1865;50.918;7.092;2023-05-07T06:46:48;4.90;;;2.10;;
3698;SDS011;1865;50.918;7.092;2023-05-07T06:49:14;8.30;;;2.03;;
3698;SDS011;1865;50.918;7.092;2023-05-07T06:51:40;4.97;;;2.00;;
3698;SDS011;1865;50.918;7.092;2023-05-07T06:54:06;5.00;;;1.83;;
3698;SDS011;1865;50.918;7.092;2023-05-07T06:56:32;4.33;;;1.83;;
3698;SDS011;1865;50.918;7.092;2023-05-07T06:58:57;5.17;;;2.10;;
3698;SDS011;1865;50.918;7.092;2023-05-07T07:01:24;7.77;;;2.30;;
3698;SDS011;1865;50.918;7.092;2023-05-07T07:03:50;4.57;;;1.83;;
3698;SDS011;1865;50.918;7.092;2023-05-07T07:06:16;5.17;;;2.07;;
3698;SDS011;1865;50.918;7.092;2023-05-07T07:08:41;5.50;;;2.07;;
3698;SDS011;1865;50.918;7.092;2023-05-07T07:11:07;10.57;;;1.87;;
3698;SDS011;1865;50.918;7.092;2023-05-07T07:13:33;5.43;;;1.93;;
3698;SDS011;1865;50.918;7.092;2023-05-07T07:15:59;6.77;;;1.77;;
3698;SDS011;1865;50.918;7.092;2023-05-07T07:18:25;5.33;;;1.60;;
3698;SDS011;1865;50.918;7.092;2023-05-07T07:20:51;4.90;;;1.67;;
3698;SDS011;1865;50.918;7.092;2023-05-07T07:23:16;6.73;;;2.50;;
3698;SDS011;1865;50.918;7.092;2023-05-07T07:25:42;4.33;;;1.80;;
3698;SDS011;1865;50.918;7.092;2023-05-07T07:28:07;5.20;;;1.70;;
3698;SDS011;1865;50.918;7.092;2023-05-07T07:30:33;5.30;;;2.07;;
3698;SDS011;1865;50.918;7.092;2023-05-07T07:32:58;7.13;;;2.53;;
3698;SDS011;1865;50.918;7.092;2023-05-07T07:35:27;8.30;;;1.90;;
3698;SDS011;1865;50.918;7.092;2023-05-07T07:37:59;7.17;;;1.70;;
3698;SDS011;1865;50.918;7.092;2023-05-07T07:40:25;4.40;;;1.90;;
3698;SDS011;1865;50.918;7.092;2023-05-07T07:42:51;4.80;;;1.60;;
3698;SDS011;1865;50.918;7.092;2023-05-07T07:45:17;4.53;;;1.63;;
3698;SDS011;1865;50.918;7.092;2023-05-07T07:47:43;7.53;;;1.70;;
3698;SDS011;1865;50.918;7.092;2023-05-07T07:50:08;6.03;;;1.80;;
3698;SDS011;1865;50.918;7.092;2023-05-07T07:52:34;5.90;;;2.00;;
3698;SDS011;1865;50.918;7.092;2023-05-07T07:55:00;4.63;;;1.73;;
3698;SDS011;1865;50.918;7.092;2023-05-07T07:57:26;5.33;;;1.83;;
3698;SDS011;1865;50.918;7.092;2023-05-07T07:59:51;7.70;;;2.30;;
3698;SDS011;1865;50.918;7.092;2023-05-07T08:02:17;8.23;;;2.33;;
3698;SDS011;1865;50.918;7.092;2023-05-07T08:04:43;5.20;;;1.67;;
3698;SDS011;1865;50.918;7.092;2023-05-07T08:07:09;7.77;;;2.00;;
3698;SDS011;1865;50.918;7.092;2023-05-07T08:09:35;4.73;;;1.77;;
3698;SDS011;1865;50.918;7.092;2023-05-07T08:12:04;4.00;;;1.50;;
3698;SDS011;1865;50.918;7.092;2023-05-07T08:14:30;5.00;;;1.40;;
3698;SDS011;1865;50.918;7.092;2023-05-07T08:16:56;4.57;;;1.43;;
3698;SDS011;1865;50.918;7.092;2023-05-07T08:19:21;8.00;;;1.90;;
3698;SDS011;1865;50.918;7.092;2023-05-07T08:21:47;7.10;;;1.80;;
3698;SDS011;1865;50.918;7.092;2023-05-07T08:24:16;6.37;;;1.83;;
3698;SDS011;1865;50.918;7.092;2023-05-07T08:26:43;6.27;;;1.60;;
3698;SDS011;1865;50.918;7.092;2023-05-07T08:29:09;10.67;;;2.13;;
3698;SDS011;1865;50.918;7.092;2023-05-07T08:31:34;6.00;;;1.63;;
3698;SDS011;1865;50.918;7.092;2023-05-07T08:34:00;6.67;;;1.70;;
3698;SDS011;1865;50.918;7.092;2023-05-07T08:36:26;6.20;;;1.97;;
3698;SDS011;1865;50.918;7.092;2023-05-07T08:38:52;6.03;;;1.50;;
3698;SDS011;1865;50.918;7.092;2023-05-07T08:41:17;9.63;;;1.67;;
3698;SDS011;1865;50.918;7.092;2023-05-07T08:43:45;6.50;;;1.80;;
3698;SDS011;1865;50.918;7.092;2023-05-07T08:46:13;5.47;;;1.50;;
3698;SDS011;1865;50.918;7.092;2023-05-07T08:48:43;6.80;;;1.70;;
3698;SDS011;1865;50.918;7.092;2023-05-07T08:51:11;7.80;;;1.60;;
3698;SDS011;1865;50.918;7.092;2023-05-07T08:53:38;6.70;;;1.70;;
3698;SDS011;1865;50.918;7.092;2023-05-07T08:56:05;8.67;;;2.20;;
3698;SDS011;1865;50.918;7.092;2023-05-07T08:58:33;5.20;;;1.43;;
3698;SDS011;1865;50.918;7.092;2023-05-07T09:00:58;5.60;;;1.67;;
3698;SDS011;1865;50.918;7.092;2023-05-07T09:03:32;12.00;;;1.60;;
3698;SDS011;1865;50.918;7.092;2023-05-07T09:05:58;6.90;;;1.60;;
3698;SDS011;1865;50.918;7.092;2023-05-07T09:08:24;5.33;;;1.47;;
3698;SDS011;1865;50.918;7.092;2023-05-07T09:10:51;7.03;;;1.90;;
3698;SDS011;1865;50.918;7.092;2023-05-07T09:13:17;6.50;;;1.40;;
3698;SDS011;1865;50.918;7.092;2023-05-07T09:15:43;6.03;;;1.70;;
3698;SDS011;1865;50.918;7.092;2023-05-07T09:18:08;5.27;;;1.20;;
3698;SDS011;1865;50.918;7.092;2023-05-07T09:20:36;8.67;;;1.80;;
3698;SDS011;1865;50.918;7.092;2023-05-07T09:23:02;4.93;;;1.30;;
3698;SDS011;1865;50.918;7.092;2023-05-07T09:25:28;6.30;;;1.50;;
3698;SDS011;1865;50.918;7.092;2023-05-07T09:27:55;5.70;;;1.40;;
3698;SDS011;1865;50.918;7.092;2023-05-07T09:30:20;6.50;;;2.03;;
3698;SDS011;1865;50.918;7.092;2023-05-07T09:32:46;5.73;;;1.43;;
3698;SDS011;1865;50.918;7.092;2023-05-07T09:35:17;7.57;;;1.60;;
3698;SDS011;1865;50.918;7.092;2023-05-07T09:37:43;6.97;;;1.50;;
3698;SDS011;1865;50.918;7.092;2023-05-07T09:40:19;12.53;;;2.00;;
3698;SDS011;1865;50.918;7.092;2023-05-07T09:42:46;5.50;;;1.40;;
3698;SDS011;1865;50.918;7.092;2023-05-07T09:45:12;5.63;;;1.50;;
3698;SDS011;1865;50.918;7.092;2023-05-07T09:47:38;5.57;;;1.57;;
3698;SDS011;1865;50.918;7.092;2023-05-07T09:50:05;4.80;;;1.33;;
3698;SDS011;1865;50.918;7.092;2023-05-07T09:52:35;6.60;;;1.20;;
3698;SDS011;1865;50.918;7.092;2023-05-07T09:55:01;11.30;;;1.53;;
3698;SDS011;1865;50.918;7.092;2023-05-07T09:57:28;7.27;;;1.50;;
3698;SDS011;1865;50.918;7.092;2023-05-07T09:59:55;6.63;;;1.87;;
3698;SDS011;1865;50.918;7.092;2023-05-07T10:02:22;6.43;;;1.50;;
3698;SDS011;1865;50.918;7.092;2023-05-07T10:04:50;6.20;;;1.27;;
3698;SDS011;1865;50.918;7.092;2023-05-07T10:07:17;6.40;;;1.77;;
3698;SDS011;1865;50.918;7.092;2023-05-07T10:09:43;7.50;;;1.60;;
3698;SDS011;1865;50.918;7.092;2023-05-07T10:12:09;9.87;;;1.40;;
3698;SDS011;1865;50.918;7.092;2023-05-07T10:14:35;6.60;;;1.33;;
3698;SDS011;1865;50.918;7.092;2023-05-07T10:17:02;6.57;;;1.43;;
3698;SDS011;1865;50.918;7.092;2023-05-07T10:19:27;6.27;;;1.60;;
3698;SDS011;1865;50.918;7.092;2023-05-07T10:21:55;7.70;;;2.10;;
3698;SDS011;1865;50.918;7.092;2023-05-07T10:24:34;6.67;;;1.10;;
3698;SDS011;1865;50.918;7.092;2023-05-07T10:27:05;5.90;;;1.33;;
3698;SDS011;1865;50.918;7.092;2023-05-07T10:35:04;6.50;;;1.37;;
3698;SDS011;1865;50.918;7.092;2023-05-07T10:37:35;7.60;;;1.40;;
3698;SDS011;1865;50.918;7.092;2023-05-07T10:40:01;7.20;;;1.57;;
3698;SDS011;1865;50.918;7.092;2023-05-07T10:42:27;7.47;;;1.70;;
3698;SDS011;1865;50.918;7.092;2023-05-07T10:44:53;6.57;;;1.60;;
3698;SDS011;1865;50.918;7.092;2023-05-07T10:47:18;7.10;;;1.33;;
3698;SDS011;1865;50.918;7.092;2023-05-07T10:52:20;6.00;;;1.13;;
3698;SDS011;1865;50.918;7.092;2023-05-07T10:55:18;7.07;;;1.70;;
3698;SDS011;1865;50.918;7.092;2023-05-07T10:57:42;8.93;;;1.50;;
3698;SDS011;1865;50.918;7.092;2023-05-07T11:05:32;8.77;;;1.47;;
3698;SDS011;1865;50.918;7.092;2023-05-07T11:08:02;7.40;;;1.23;;
3698;SDS011;1865;50.918;7.092;2023-05-07T11:10:48;10.40;;;1.40;;
3698;SDS011;1865;50.918;7.092;2023-05-07T11:13:42;9.30;;;1.40;;
3698;SDS011;1865;50.918;7.092;2023-05-07T11:18:53;7.60;;;1.20;;
3698;SDS011;1865;50.918;7.092;2023-05-07T11:21:33;5.70;;;1.00;;
3698;SDS011;1865;50.918;7.092;2023-05-07T11:23:59;6.87;;;1.13;;
3698;SDS011;1865;50.918;7.092;2023-05-07T11:26:27;7.73;;;1.30;;
3698;SDS011;1865;50.918;7.092;2023-05-07T11:28:54;6.70;;;1.20;;
3698;SDS011;1865;50.918;7.092;2023-05-07T11:31:21;5.80;;;1.20;;
3698;SDS011;1865;50.918;7.092;2023-05-07T11:33:51;6.47;;;1.13;;
3698;SDS011;1865;50.918;7.092;2023-05-07T11:36:17;7.70;;;1.57;;
3698;SDS011;1865;50.918;7.092;2023-05-07T11:38:44;6.57;;;1.03;;
3698;SDS011;1865;50.918;7.092;2023-05-07T11:41:09;6.73;;;1.00;;
3698;SDS011;1865;50.918;7.092;2023-05-07T11:43:35;6.40;;;1.30;;
3698;SDS011;1865;50.918;7.092;2023-05-07T11:46:10;6.37;;;1.40;;
3698;SDS011;1865;50.918;7.092;2023-05-07T11:48:37;7.13;;;1.13;;
3698;SDS011;1865;50.918;7.092;2023-05-07T11:51:04;10.60;;;1.37;;
3698;SDS011;1865;50.918;7.092;2023-05-07T11:53:38;8.43;;;1.50;;
3698;SDS011;1865;50.918;7.092;2023-05-07T11:56:08;7.07;;;1.40;;
3698;SDS011;1865;50.918;7.092;2023-05-07T11:58:34;8.00;;;1.50;;
3698;SDS011;1865;50.918;7.092;2023-05-07T12:01:01;6.17;;;1.10;;
3698;SDS011;1865;50.918;7.092;2023-05-07T12:03:26;7.43;;;1.50;;
3698;SDS011;1865;50.918;7.092;2023-05-07T12:05:52;7.83;;;1.40;;
3698;SDS011;1865;50.918;7.092;2023-05-07T12:08:18;6.97;;;1.30;;
3698;SDS011;1865;50.918;7.092;2023-05-07T12:10:46;6.70;;;1.30;;
3698;SDS011;1865;50.918;7.092;2023-05-07T12:13:23;7.43;;;1.07;;
3698;SDS011;1865;50.918;7.092;2023-05-07T12:15:53;10.60;;;1.00;;
3698;SDS011;1865;50.918;7.092;2023-05-07T12:18:19;7.03;;;1.03;;
3698;SDS011;1865;50.918;7.092;2023-05-07T12:20:46;5.80;;;1.03;;
3698;SDS011;1865;50.918;7.092;2023-05-07T12:23:12;8.50;;;1.40;;
3698;SDS011;1865;50.918;7.092;2023-05-07T12:25:38;9.83;;;1.07;;
3698;SDS011;1865;50.918;7.092;2023-05-07T12:28:05;6.40;;;1.10;;
3698;SDS011;1865;50.918;7.092;2023-05-07T12:30:36;5.73;;;1.20;;
3698;SDS011;1865;50.918;7.092;2023-05-07T12:33:03;6.83;;;1.23;;
3698;SDS011;1865;50.918;7.092;2023-05-07T12:35:29;5.97;;;1.10;;
3698;SDS011;1865;50.918;7.092;2023-05-07T12:37:56;5.90;;;1.10;;
3698;SDS011;1865;50.918;7.092;2023-05-07T12:40:25;6.90;;;1.20;;
3698;SDS011;1865;50.918;7.092;2023-05-07T12:43:07;8.70;;;1.63;;
3698;SDS011;1865;50.918;7.092;2023-05-07T12:45:36;9.83;;;1.17;;
3698;SDS011;1865;50.918;7.092;2023-05-07T12:48:03;8.30;;;1.70;;
3698;SDS011;1865;50.918;7.092;2023-05-07T12:50:32;8.13;;;1.47;;
3698;SDS011;1865;50.918;7.092;2023-05-07T12:52:58;8.20;;;1.50;;
3698;SDS011;1865;50.918;7.092;2023-05-07T12:55:24;6.80;;;1.03;;
3698;SDS011;1865;50.918;7.092;2023-05-07T12:57:50;6.87;;;1.47;;
3698;SDS011;1865;50.918;7.092;2023-05-07T13:00:17;8.10;;;1.63;;
3698;SDS011;1865;50.918;7.092;2023-05-07T13:02:58;5.80;;;1.20;;
3698;SDS011;1865;50.918;7.092;2023-05-07T13:05:23;6.90;;;1.30;;
3698;SDS011;1865;50.918;7.092;2023-05-07T13:07:52;8.50;;;1.47;;
3698;SDS011;1865;50.918;7.092;2023-05-07T13:10:18;5.70;;;1.10;;
3698;SDS011;1865;50.918;7.092;2023-05-07T13:12:44;6.53;;;1.43;;
3698;SDS011;1865;50.918;7.092;2023-05-07T13:15:09;5.97;;;1.20;;
3698;SDS011;1865;50.918;7.092;2023-05-07T13:17:35;6.23;;;1.10;;
3698;SDS011;1865;50.918;7.092;2023-05-07T13:20:00;5.50;;;1.00;;
3698;SDS011;1865;50.918;7.092;2023-05-07T13:22:26;9.13;;;1.60;;
3698;SDS011;1865;50.918;7.092;2023-05-07T13:24:51;6.90;;;1.27;;
3698;SDS011;1865;50.918;7.092;2023-05-07T13:27:17;7.50;;;1.37;;
3698;SDS011;1865;50.918;7.092;2023-05-07T13:29:44;7.33;;;1.63;;
3698;SDS011;1865;50.918;7.092;2023-05-07T13:32:09;5.90;;;1.10;;
3698;SDS011;1865;50.918;7.092;2023-05-07T13:34:35;5.50;;;1.17;;
3698;SDS011;1865;50.918;7.092;2023-05-07T13:37:01;6.10;;;1.30;;
3698;SDS011;1865;50.918;7.092;2023-05-07T13:39:27;7.50;;;1.23;;
3698;SDS011;1865;50.918;7.092;2023-05-07T13:41:52;6.90;;;1.30;;
3698;SDS011;1865;50.918;7.092;2023-05-07T13:44:18;7.93;;;1.00;;
3698;SDS011;1865;50.918;7.092;2023-05-07T13:46:43;8.40;;;1.67;;
3698;SDS011;1865;50.918;7.092;2023-05-07T13:49:09;5.90;;;1.20;;
3698;SDS011;1865;50.918;7.092;2023-05-07T13:51:36;6.40;;;1.40;;
3698;SDS011;1865;50.918;7.092;2023-05-07T13:54:01;8.40;;;1.90;;
3698;SDS011;1865;50.918;7.092;2023-05-07T13:56:27;17.93;;;3.60;;
3698;SDS011;1865;50.918;7.092;2023-05-07T13:58:55;22.30;;;4.13;;
3698;SDS011;1865;50.918;7.092;2023-05-07T14:01:21;21.03;;;4.50;;
3698;SDS011;1865;50.918;7.092;2023-05-07T14:03:46;17.30;;;3.20;;
3698;SDS011;1865;50.918;7.092;2023-05-07T14:06:12;17.57;;;2.93;;
3698;SDS011;1865;50.918;7.092;2023-05-07T14:08:37;11.53;;;2.80;;
3698;SDS011;1865;50.918;7.092;2023-05-07T14:11:03;14.67;;;3.00;;
3698;SDS011;1865;50.918;7.092;2023-05-07T14:13:28;10.23;;;2.63;;
3698;SDS011;1865;50.918;7.092;2023-05-07T14:15:55;11.23;;;2.67;;
3698;SDS011;1865;50.918;7.092;2023-05-07T14:18:21;11.63;;;2.80;;
3698;SDS011;1865;50.918;7.092;2023-05-07T14:20:47;9.70;;;3.57;;
3698;SDS011;1865;50.918;7.092;2023-05-07T14:23:13;8.80;;;2.93;;
3698;SDS011;1865;50.918;7.092;2023-05-07T14:25:39;11.70;;;2.87;;
3698;SDS011;1865;50.918;7.092;2023-05-07T14:28:05;11.43;;;3.33;;
3698;SDS011;1865;50.918;7.092;2023-05-07T14:30:31;11.07;;;3.70;;
3698;SDS011;1865;50.918;7.092;2023-05-07T14:32:56;12.20;;;3.40;;
3698;SDS011;1865;50.918;7.092;2023-05-07T14:35:22;15.17;;;4.10;;
3698;SDS011;1865;50.918;7.092;2023-05-07T14:37:48;8.57;;;3.17;;
3698;SDS011;1865;50.918;7.092;2023-05-07T14:40:13;10.80;;;4.47;;
3698;SDS011;1865;50.918;7.092;2023-05-07T14:42:39;9.30;;;3.60;;
3698;SDS011;1865;50.918;7.092;2023-05-07T14:45:05;13.80;;;3.50;;
3698;SDS011;1865;50.918;7.092;2023-05-07T14:47:31;6.57;;;2.70;;
3698;SDS011;1865;50.918;7.092;2023-05-07T14:49:56;10.90;;;3.17;;
3698;SDS011;1865;50.918;7.092;2023-05-07T14:52:24;13.50;;;3.50;;
3698;SDS011;1865;50.918;7.092;2023-05-07T14:54:50;7.87;;;3.13;;
3698;SDS011;1865;50.918;7.092;2023-05-07T14:57:16;7.10;;;2.70;;
3698;SDS011;1865;50.918;7.092;2023-05-07T14:59:43;6.73;;;2.93;;
3698;SDS011;1865;50.918;7.092;2023-05-07T15:02:09;8.23;;;3.20;;
3698;SDS011;1865;50.918;7.092;2023-05-07T15:04:36;7.50;;;3.10;;
3698;SDS011;1865;50.918;7.092;2023-05-07T15:07:03;5.70;;;2.80;;
3698;SDS011;1865;50.918;7.092;2023-05-07T15:09:28;6.57;;;3.10;;
3698;SDS011;1865;50.918;7.092;2023-05-07T15:11:54;7.70;;;2.90;;
3698;SDS011;1865;50.918;7.092;2023-05-07T15:14:20;6.10;;;2.73;;
3698;SDS011;1865;50.918;7.092;2023-05-07T15:16:46;7.10;;;2.83;;
3698;SDS011;1865;50.918;7.092;2023-05-07T15:19:13;7.60;;;3.23;;
3698;SDS011;1865;50.918;7.092;2023-05-07T15:21:39;9.70;;;2.90;;
3698;SDS011;1865;50.918;7.092;2023-05-07T15:24:05;7.00;;;3.10;;
3698;SDS011;1865;50.918;7.092;2023-05-07T15:26:31;7.83;;;2.90;;